createdAt,value
2023-04-01T00:01:17.866Z,47.83
2023-04-01T00:03:46.555Z,47.99
2023-04-01T00:06:17.378Z,48.03
2023-04-01T00:08:45.938Z,47.89
2023-04-01T00:11:16.000Z,47.88
2023-04-01T00:13:44.560Z,47.78
2023-04-01T00:16:21.717Z,47.76
2023-04-01T00:18:51.798Z,48.01
2023-04-01T00:21:21.873Z,48.15
2023-04-01T00:23:52.153Z,48.26
2023-04-01T00:26:23.124Z,48.06
2023-04-01T00:28:52.239Z,48.30
2023-04-01T00:31:21.113Z,48.13
2023-04-01T00:33:49.435Z,48.08
2023-04-01T00:36:20.851Z,48.02
2023-04-01T00:38:49.525Z,47.94
2023-04-01T00:41:18.802Z,48.04
2023-04-01T00:43:49.822Z,47.87
2023-04-01T00:46:20.071Z,47.97
2023-04-01T00:48:55.626Z,47.89
2023-04-01T00:51:29.372Z,47.82
2023-04-01T00:53:59.640Z,47.96
2023-04-01T00:57:02.445Z,47.74
2023-04-01T00:59:37.344Z,47.80
2023-04-01T01:02:09.994Z,47.78
2023-04-01T01:04:38.575Z,47.72
2023-04-01T01:07:29.691Z,47.73
2023-04-01T01:10:16.481Z,47.88
2023-04-01T01:12:55.163Z,47.94
2023-04-01T01:15:47.898Z,47.72
2023-04-01T01:18:29.792Z,47.89
2023-04-01T01:21:31.629Z,47.81
2023-04-01T01:24:00.728Z,47.91
2023-04-01T01:26:55.063Z,48.03
2023-04-01T01:29:50.396Z,47.95
2023-04-01T01:32:21.436Z,47.85
2023-04-01T01:35:27.414Z,48.21
2023-04-01T01:38:18.226Z,48.04
2023-04-01T01:40:55.850Z,48.17
2023-04-01T01:43:27.390Z,48.14
2023-04-01T01:45:59.482Z,47.98
2023-04-01T01:48:29.310Z,48.28
2023-04-01T01:50:58.129Z,48.44
2023-04-01T01:53:26.557Z,48.32
2023-04-01T01:55:55.490Z,48.25
2023-04-01T01:58:33.932Z,48.57
2023-04-01T02:01:05.095Z,48.23
2023-04-01T02:03:37.002Z,48.29
2023-04-01T02:06:08.639Z,48.55
2023-04-01T02:08:44.402Z,48.46
2023-04-01T02:11:21.241Z,48.47
2023-04-01T02:13:58.422Z,48.40
2023-04-01T02:16:31.027Z,48.41
2023-04-01T02:19:00.148Z,48.68
2023-04-01T02:21:32.661Z,48.47
2023-04-01T02:24:03.836Z,48.57
2023-04-01T02:26:32.466Z,48.48
2023-04-01T02:29:01.607Z,48.46
2023-04-01T02:31:32.109Z,48.67
2023-04-01T02:34:00.486Z,48.47
2023-04-01T02:36:29.259Z,48.35
2023-04-01T02:39:03.319Z,48.13
2023-04-01T02:41:31.949Z,48.40
2023-04-01T02:44:00.588Z,48.21
2023-04-01T02:46:29.189Z,48.42
2023-04-01T02:48:57.401Z,48.21
2023-04-01T02:51:27.530Z,48.17
2023-04-01T02:53:56.091Z,48.25
2023-04-01T02:56:24.783Z,48.22
2023-04-01T02:58:53.754Z,48.40
2023-04-01T03:01:22.872Z,48.20
2023-04-01T03:03:51.228Z,48.42
2023-04-01T03:06:19.835Z,48.04
2023-04-01T03:08:48.348Z,48.19
2023-04-01T03:11:16.975Z,48.20
2023-04-01T03:13:45.372Z,48.26
2023-04-01T03:16:14.718Z,48.17
2023-04-01T03:18:42.895Z,48.23
2023-04-01T03:21:22.570Z,48.21
2023-04-01T03:23:52.251Z,48.13
2023-04-01T03:26:21.076Z,48.14
2023-04-01T03:28:49.600Z,48.07
2023-04-01T03:31:18.167Z,48.19
2023-04-01T03:33:52.726Z,48.05
2023-04-01T03:36:21.329Z,48.15
2023-04-01T03:38:49.646Z,47.89
2023-04-01T03:41:26.769Z,47.98
2023-04-01T03:43:55.844Z,47.83
2023-04-01T03:46:24.512Z,47.89
2023-04-01T03:48:53.334Z,48.15
2023-04-01T03:51:21.927Z,47.99
2023-04-01T03:53:50.757Z,48.03
2023-04-01T03:56:19.581Z,47.77
2023-04-01T03:58:47.856Z,48.03
2023-04-01T04:01:19.153Z,47.92
2023-04-01T04:03:51.043Z,47.86
2023-04-01T04:06:20.377Z,48.05
2023-04-01T04:08:50.416Z,47.72
2023-04-01T04:11:20.273Z,47.82
2023-04-01T04:13:49.281Z,47.92
2023-04-01T04:16:18.808Z,47.60
2023-04-01T04:18:52.649Z,47.64
2023-04-01T04:21:21.384Z,47.78
2023-04-01T04:23:49.603Z,47.84
2023-04-01T04:26:20.563Z,47.53
2023-04-01T04:28:56.586Z,47.62
2023-04-01T04:31:26.850Z,47.55
2023-04-01T04:33:57.545Z,47.71
2023-04-01T04:36:26.432Z,47.68
2023-04-01T04:38:54.912Z,47.31
2023-04-01T04:41:23.730Z,47.63
2023-04-01T04:43:55.495Z,47.53
2023-04-01T04:46:26.359Z,47.44
2023-04-01T04:49:01.486Z,47.55
2023-04-01T04:51:30.396Z,47.28
2023-04-01T04:53:58.902Z,47.31
2023-04-01T04:56:41.582Z,47.41
2023-04-01T04:59:11.201Z,47.40
2023-04-01T05:01:53.755Z,47.43
2023-04-01T05:04:22.165Z,47.17
2023-04-01T05:06:50.965Z,47.35
2023-04-01T05:09:19.719Z,47.27
2023-04-01T05:11:48.485Z,47.41
2023-04-01T05:14:19.044Z,47.09
2023-04-01T05:16:57.146Z,47.11
2023-04-01T05:19:25.761Z,47.04
2023-04-01T05:21:54.666Z,47.14
2023-04-01T05:24:23.141Z,47.23
2023-04-01T05:26:53.888Z,46.98
2023-04-01T05:29:24.414Z,46.91
2023-04-01T05:31:59.351Z,47.06
2023-04-01T05:34:27.793Z,47.05
2023-04-01T05:36:56.585Z,46.94
2023-04-01T05:39:25.042Z,46.82
2023-04-01T05:41:53.898Z,47.00
2023-04-01T05:44:22.333Z,46.87
2023-04-01T05:46:51.347Z,46.65
2023-04-01T05:49:27.600Z,46.93
2023-04-01T05:51:58.576Z,46.94
2023-04-01T05:54:27.516Z,46.46
2023-04-01T05:56:56.347Z,46.55
2023-04-01T05:59:24.776Z,46.59
2023-04-01T06:01:54.433Z,46.63
2023-04-01T06:04:23.316Z,46.36
2023-04-01T06:06:53.125Z,46.68
2023-04-01T06:09:28.275Z,46.55
2023-04-01T06:12:02.290Z,46.68
2023-04-01T06:14:42.413Z,46.44
2023-04-01T06:17:11.837Z,46.59
2023-04-01T06:20:12.150Z,46.67
2023-04-01T06:23:00.744Z,46.72
2023-04-01T06:25:47.013Z,46.67
2023-04-01T06:28:46.532Z,46.72
2023-04-01T06:31:45.472Z,48.05
2023-04-01T06:34:36.057Z,49.57
2023-04-01T06:37:25.903Z,51.36
2023-04-01T06:40:07.747Z,52.32
2023-04-01T06:43:02.399Z,52.91
2023-04-01T06:46:05.346Z,52.57
2023-04-01T06:49:06.655Z,51.07
2023-04-01T06:51:50.742Z,50.06
2023-04-01T06:54:40.236Z,49.56
2023-04-01T06:57:41.578Z,49.51
2023-04-01T07:00:22.217Z,49.25
2023-04-01T07:02:57.242Z,48.91
2023-04-01T07:05:26.977Z,48.63
2023-04-01T07:07:59.577Z,48.59
2023-04-01T07:10:44.458Z,48.70
2023-04-01T07:14:00.756Z,48.32
2023-04-01T07:17:07.997Z,48.23
2023-04-01T07:19:52.595Z,48.03
2023-04-01T07:22:36.606Z,48.27
2023-04-01T07:25:26.608Z,48.00
2023-04-01T07:28:35.465Z,48.21
2023-04-01T07:31:32.629Z,48.21
2023-04-01T07:34:12.934Z,48.11
2023-04-01T07:36:56.364Z,47.75
2023-04-01T07:39:54.791Z,47.72
2023-04-01T07:42:56.056Z,47.77
2023-04-01T07:46:03.330Z,48.34
2023-04-01T07:48:41.347Z,50.10
2023-04-01T07:51:37.730Z,51.09
2023-04-01T07:54:28.572Z,51.23
2023-04-01T07:57:00.139Z,52.09
2023-04-01T08:00:06.575Z,52.51
2023-04-01T08:03:17.444Z,52.58
2023-04-01T08:05:55.586Z,52.68
2023-04-01T08:08:58.781Z,52.85
2023-04-01T08:11:43.731Z,52.58
2023-04-01T08:14:39.799Z,52.26
2023-04-01T08:17:47.191Z,52.36
2023-04-01T08:20:30.508Z,52.52
2023-04-01T08:23:29.522Z,52.23
2023-04-01T08:26:02.303Z,52.50
2023-04-01T08:28:41.446Z,52.49
2023-04-01T08:31:17.988Z,52.27
2023-04-01T08:33:48.171Z,51.70
2023-04-01T08:36:20.913Z,51.71
2023-04-01T08:38:59.657Z,52.05
2023-04-01T08:41:59.356Z,52.86
2023-04-01T08:45:25.866Z,53.37
2023-04-01T08:47:59.580Z,53.72
2023-04-01T08:51:00.589Z,52.69
2023-04-01T08:53:45.230Z,52.23
2023-04-01T08:56:38.848Z,51.96
2023-04-01T08:59:19.342Z,51.74
2023-04-01T09:01:57.219Z,51.35
2023-04-01T09:04:48.451Z,51.67
2023-04-01T09:07:46.947Z,51.15
2023-04-01T09:10:21.713Z,51.17
2023-04-01T09:13:05.030Z,51.97
2023-04-01T09:16:08.292Z,52.25
2023-04-01T09:18:59.061Z,52.96
2023-04-01T09:21:27.551Z,52.57
2023-04-01T09:24:21.885Z,52.18
2023-04-01T09:27:16.650Z,52.00
2023-04-01T09:30:15.524Z,53.33
2023-04-01T09:33:02.522Z,52.33
2023-04-01T09:36:09.143Z,51.65
2023-04-01T09:38:40.804Z,51.78
2023-04-01T09:41:29.248Z,51.33
2023-04-01T09:44:24.721Z,50.87
2023-04-01T09:47:25.691Z,50.38
2023-04-01T09:50:12.333Z,50.20
2023-04-01T09:52:52.974Z,49.83
2023-04-01T09:55:51.577Z,49.64
2023-04-01T09:58:43.748Z,49.57
2023-04-01T10:02:13.154Z,48.95
2023-04-01T10:05:19.838Z,48.07
2023-04-01T10:08:07.832Z,47.08
2023-04-01T10:10:42.844Z,44.97
2023-04-01T10:13:29.872Z,43.73
2023-04-01T10:16:02.993Z,44.44
2023-04-01T10:18:39.101Z,42.85
2023-04-01T10:21:16.076Z,41.75
2023-04-01T10:23:57.223Z,40.39
2023-04-01T10:26:28.532Z,39.15
2023-04-01T10:29:34.782Z,39.87
2023-04-01T10:32:39.429Z,39.50
2023-04-01T10:35:44.810Z,39.47
2023-04-01T10:38:16.429Z,40.18
2023-04-01T10:40:59.297Z,39.85
2023-04-01T10:43:55.937Z,40.21
2023-04-01T10:46:42.849Z,40.42
2023-04-01T10:49:36.352Z,40.71
2023-04-01T10:52:32.087Z,41.53
2023-04-01T10:55:55.631Z,41.63
2023-04-01T10:59:06.592Z,41.92
2023-04-01T11:02:43.827Z,42.31
2023-04-01T11:05:21.388Z,41.92
2023-04-01T11:08:33.703Z,41.54
2023-04-01T11:11:39.622Z,41.18
2023-04-01T11:14:26.562Z,40.62
2023-04-01T11:16:54.745Z,39.95
2023-04-01T11:19:52.492Z,40.15
2023-04-01T11:23:01.438Z,39.64
2023-04-01T11:25:50.896Z,39.76
2023-04-01T11:28:50.096Z,39.46
2023-04-01T11:31:54.843Z,38.36
2023-04-01T11:34:54.575Z,37.54
2023-04-01T11:37:26.423Z,36.69
2023-04-01T11:40:42.311Z,36.30
2023-04-01T11:43:38.994Z,36.07
2023-04-01T11:46:48.046Z,36.36
2023-04-01T11:49:58.389Z,36.18
2023-04-01T11:53:03.073Z,36.12
2023-04-01T11:56:18.302Z,35.94
2023-04-01T11:59:14.888Z,36.60
2023-04-01T12:01:51.491Z,36.71
2023-04-01T12:04:28.061Z,36.60
2023-04-01T12:07:04.540Z,37.41
2023-04-01T12:10:08.520Z,37.88
2023-04-01T12:13:00.082Z,38.19
2023-04-01T12:15:49.892Z,37.74
2023-04-01T12:18:40.202Z,37.95
2023-04-01T12:21:37.247Z,37.78
2023-04-01T12:24:24.506Z,36.72
2023-04-01T12:27:14.421Z,34.35
2023-04-01T12:30:21.209Z,33.29
2023-04-01T12:32:55.959Z,32.73
2023-04-01T12:35:49.290Z,32.79
2023-04-01T12:38:29.485Z,32.00
2023-04-01T12:41:09.763Z,32.63
2023-04-01T12:43:56.565Z,32.60
2023-04-01T12:46:34.495Z,32.25
2023-04-01T12:49:05.693Z,32.26
2023-04-01T12:52:00.922Z,32.57
2023-04-01T12:54:35.071Z,32.43
2023-04-01T12:57:25.294Z,31.98
2023-04-01T13:00:11.724Z,31.60
2023-04-01T13:02:55.630Z,31.64
2023-04-01T13:05:42.685Z,31.76
2023-04-01T13:08:24.162Z,31.34
2023-04-01T13:11:12.883Z,31.68
2023-04-01T13:14:06.989Z,31.58
2023-04-01T13:16:40.647Z,31.36
2023-04-01T13:19:34.578Z,31.91
2023-04-01T13:22:12.189Z,31.86
2023-04-01T13:24:51.661Z,31.88
2023-04-01T13:27:35.550Z,31.84
2023-04-01T13:30:10.187Z,31.70
2023-04-01T13:32:46.987Z,31.33
2023-04-01T13:36:00.162Z,30.63
2023-04-01T13:38:34.680Z,30.55
2023-04-01T13:41:19.961Z,30.52
2023-04-01T13:44:20.266Z,30.19
2023-04-01T13:47:10.497Z,30.40
2023-04-01T13:49:53.918Z,30.65
2023-04-01T13:52:31.863Z,30.22
2023-04-01T13:55:09.022Z,30.32
2023-04-01T13:57:43.388Z,30.15
2023-04-01T14:00:50.533Z,29.69
2023-04-01T14:03:31.913Z,29.07
2023-04-01T14:06:07.758Z,28.80
2023-04-01T14:08:58.066Z,29.47
2023-04-01T14:11:38.336Z,28.96
2023-04-01T14:14:21.882Z,29.20
2023-04-01T14:17:03.797Z,30.33
2023-04-01T14:19:32.445Z,31.13
2023-04-01T14:22:19.435Z,31.06
2023-04-01T14:25:06.942Z,30.72
2023-04-01T14:28:01.475Z,29.91
2023-04-01T14:30:42.632Z,30.96
2023-04-01T14:33:26.458Z,30.96
2023-04-01T14:36:10.325Z,31.04
2023-04-01T14:38:47.760Z,31.23
2023-04-01T14:41:27.719Z,30.95
2023-04-01T14:44:02.003Z,30.93
2023-04-01T14:47:01.767Z,30.78
2023-04-01T14:49:45.644Z,30.79
2023-04-01T14:52:23.205Z,30.62
2023-04-01T14:54:52.544Z,30.92
2023-04-01T14:57:30.042Z,30.84
2023-04-01T15:00:10.973Z,30.87
2023-04-01T15:03:00.326Z,31.20
2023-04-01T15:05:41.527Z,31.20
2023-04-01T15:08:18.493Z,31.00
2023-04-01T15:11:08.600Z,30.31
2023-04-01T15:14:03.469Z,30.38
2023-04-01T15:17:15.750Z,30.90
2023-04-01T15:20:12.236Z,31.02
2023-04-01T15:22:56.679Z,31.46
2023-04-01T15:25:43.720Z,30.99
2023-04-01T15:28:21.363Z,31.12
2023-04-01T15:31:02.818Z,31.13
2023-04-01T15:33:44.114Z,31.04
2023-04-01T15:36:34.960Z,30.71
2023-04-01T15:39:09.367Z,30.03
2023-04-01T15:41:55.982Z,30.04
2023-04-01T15:44:30.809Z,29.87
2023-04-01T15:46:59.649Z,29.73
2023-04-01T15:49:39.124Z,30.31
2023-04-01T15:52:13.761Z,29.17
2023-04-01T15:55:01.044Z,29.19
2023-04-01T15:57:41.967Z,28.45
2023-04-01T16:00:28.493Z,28.71
2023-04-01T16:03:16.356Z,28.99
2023-04-01T16:05:57.256Z,28.94
2023-04-01T16:09:03.928Z,28.72
2023-04-01T16:11:52.011Z,28.86
2023-04-01T16:14:46.385Z,28.60
2023-04-01T16:17:29.864Z,28.51
2023-04-01T16:20:04.708Z,28.39
2023-04-01T16:22:40.002Z,28.00
2023-04-01T16:25:39.591Z,28.20
2023-04-01T16:28:31.308Z,27.76
2023-04-01T16:31:10.580Z,27.51
2023-04-01T16:33:52.513Z,27.81
2023-04-01T16:36:36.600Z,28.13
2023-04-01T16:39:20.850Z,28.23
2023-04-01T16:42:32.500Z,27.77
2023-04-01T16:45:29.899Z,27.90
2023-04-01T16:48:07.093Z,28.44
2023-04-01T16:50:47.987Z,28.29
2023-04-01T16:53:26.380Z,28.35
2023-04-01T16:56:18.593Z,27.82
2023-04-01T16:59:08.535Z,28.31
2023-04-01T17:02:02.844Z,28.34
2023-04-01T17:05:07.729Z,28.21
2023-04-01T17:07:44.892Z,29.04
2023-04-01T17:10:39.017Z,28.68
2023-04-01T17:13:48.489Z,29.15
2023-04-01T17:16:46.215Z,29.86
2023-04-01T17:19:43.786Z,29.98
2023-04-01T17:22:36.395Z,30.79
2023-04-01T17:25:28.789Z,31.23
2023-04-01T17:28:40.688Z,31.85
2023-04-01T17:31:38.911Z,32.13
2023-04-01T17:34:32.780Z,32.49
2023-04-01T17:37:08.956Z,32.64
2023-04-01T17:39:46.635Z,32.95
2023-04-01T17:42:18.709Z,33.03
2023-04-01T17:45:23.645Z,33.68
2023-04-01T17:48:22.997Z,33.61
2023-04-01T17:51:07.532Z,33.81
2023-04-01T17:53:57.917Z,34.08
2023-04-01T17:56:45.892Z,34.17
2023-04-01T17:59:26.089Z,34.32
2023-04-01T18:02:04.901Z,34.55
2023-04-01T18:04:45.427Z,34.62
2023-04-01T18:07:16.918Z,34.57
2023-04-01T18:09:58.397Z,34.63
2023-04-01T18:12:36.447Z,34.90
2023-04-01T18:15:29.948Z,35.13
2023-04-01T18:18:27.837Z,35.24
2023-04-01T18:21:03.468Z,35.17
2023-04-01T18:23:42.771Z,35.27
2023-04-01T18:26:29.665Z,35.46
2023-04-01T18:29:25.688Z,35.57
2023-04-01T18:32:03.201Z,35.94
2023-04-01T18:34:59.570Z,35.91
2023-04-01T18:38:09.638Z,36.04
2023-04-01T18:41:02.355Z,36.17
2023-04-01T18:44:01.466Z,36.19
2023-04-01T18:46:51.504Z,36.38
2023-04-01T18:49:23.733Z,36.14
2023-04-01T18:52:03.975Z,36.37
2023-04-01T18:54:34.914Z,36.25
2023-04-01T18:57:14.950Z,36.83
2023-04-01T18:59:59.354Z,36.60
2023-04-01T19:02:40.847Z,36.57
2023-04-01T19:05:21.445Z,36.69
2023-04-01T19:08:14.651Z,37.04
2023-04-01T19:11:11.541Z,37.11
2023-04-01T19:13:52.338Z,37.22
2023-04-01T19:16:30.564Z,37.22
2023-04-01T19:18:59.214Z,37.30
2023-04-01T19:21:29.922Z,37.29
2023-04-01T19:24:28.790Z,37.55
2023-04-01T19:27:18.574Z,37.23
2023-04-01T19:30:24.711Z,37.30
2023-04-01T19:33:15.164Z,37.63
2023-04-01T19:35:49.590Z,37.65
2023-04-01T19:38:42.910Z,37.44
2023-04-01T19:41:36.583Z,37.50
2023-04-01T19:44:28.313Z,37.54
2023-04-01T19:47:26.751Z,37.53
2023-04-01T19:50:03.700Z,37.75
2023-04-01T19:52:41.450Z,37.62
2023-04-01T19:55:46.624Z,37.62
2023-04-01T19:58:42.845Z,37.62
2023-04-01T20:01:22.005Z,38.03
2023-04-01T20:03:57.463Z,37.96
2023-04-01T20:06:35.845Z,37.95
2023-04-01T20:09:11.460Z,37.95
2023-04-01T20:11:58.438Z,38.17
2023-04-01T20:14:49.443Z,37.96
2023-04-01T20:17:32.751Z,37.92
2023-04-01T20:20:14.694Z,38.09
2023-04-01T20:22:46.019Z,38.15
2023-04-01T20:25:25.193Z,38.44
2023-04-01T20:27:58.262Z,38.28
2023-04-01T20:30:33.067Z,38.25
2023-04-01T20:33:13.801Z,38.36
2023-04-01T20:35:48.891Z,38.22
2023-04-01T20:38:32.142Z,38.59
2023-04-01T20:41:23.711Z,38.33
2023-04-01T20:44:14.533Z,38.31
2023-04-01T20:46:58.248Z,38.42
2023-04-01T20:49:29.301Z,38.45
2023-04-01T20:52:08.781Z,38.86
2023-04-01T20:54:42.514Z,38.51
2023-04-01T20:57:40.497Z,38.69
2023-04-01T21:00:42.007Z,38.44
2023-04-01T21:03:19.707Z,38.61
2023-04-01T21:06:12.132Z,38.90
2023-04-01T21:09:28.476Z,38.69
2023-04-01T21:12:11.771Z,38.97
2023-04-01T21:15:13.867Z,39.16
2023-04-01T21:17:49.790Z,38.89
2023-04-01T21:20:24.396Z,39.08
2023-04-01T21:22:52.526Z,39.11
2023-04-01T21:25:38.747Z,39.02
2023-04-01T21:28:06.846Z,39.13
2023-04-01T21:31:02.275Z,39.21
2023-04-01T21:33:30.657Z,39.06
2023-04-01T21:36:36.256Z,39.07
2023-04-01T21:39:22.596Z,39.40
2023-04-01T21:42:19.756Z,39.43
2023-04-01T21:45:06.396Z,39.43
2023-04-01T21:48:16.917Z,39.35
2023-04-01T21:51:09.019Z,39.26
2023-04-01T21:53:46.206Z,39.36
2023-04-01T21:56:23.467Z,39.64
2023-04-01T21:59:23.805Z,39.98
2023-04-01T22:02:01.002Z,40.04
2023-04-01T22:05:00.167Z,40.00
2023-04-01T22:08:13.015Z,39.95
2023-04-01T22:11:00.187Z,40.08
2023-04-01T22:13:34.473Z,40.10
2023-04-01T22:16:19.083Z,40.30
2023-04-01T22:19:07.257Z,40.48
2023-04-01T22:22:02.509Z,40.64
2023-04-01T22:24:55.241Z,40.56
2023-04-01T22:28:07.243Z,40.52
2023-04-01T22:30:40.592Z,40.51
2023-04-01T22:33:18.511Z,40.33
2023-04-01T22:36:30.683Z,40.81
2023-04-01T22:39:05.001Z,40.87
2023-04-01T22:41:51.084Z,40.81
2023-04-01T22:44:28.753Z,41.03
2023-04-01T22:47:08.813Z,40.83
2023-04-01T22:49:42.512Z,40.88
2023-04-01T22:52:20.370Z,40.92
2023-04-01T22:54:53.871Z,40.99
2023-04-01T22:57:31.673Z,41.03
2023-04-01T23:00:27.670Z,41.25
2023-04-01T23:03:10.316Z,41.19
2023-04-01T23:05:52.491Z,41.11
2023-04-01T23:08:29.246Z,41.23
2023-04-01T23:11:00.946Z,41.17
2023-04-01T23:13:49.790Z,41.24
2023-04-01T23:16:30.990Z,41.53
2023-04-01T23:19:26.140Z,41.51
2023-04-01T23:22:06.742Z,41.86
2023-04-01T23:24:52.092Z,41.71
2023-04-01T23:27:38.360Z,42.20
2023-04-01T23:30:41.624Z,42.12
2023-04-01T23:33:21.187Z,42.38
2023-04-01T23:36:13.693Z,42.44
2023-04-01T23:38:43.824Z,42.22
2023-04-01T23:41:31.044Z,42.37
2023-04-01T23:44:10.756Z,42.72
2023-04-01T23:46:41.333Z,42.47
2023-04-01T23:49:24.221Z,42.72
2023-04-01T23:52:01.473Z,42.74
2023-04-01T23:55:09.189Z,42.93
2023-04-01T23:57:38.056Z,42.89
